Time;durP1;ratioP1;P1;durP2;ratioP2;P2;SDS_P1;SDS_P2;PMS_P1;PMS_P2;Temp;Humidity;BMP_temperature;BMP_pressure;BME280_temperature;BME280_humidity;BME280_pressure;Samples;Min_cycle;Max_cycle;Signal;HPM_P1;HPM_P2
2021/04/26 00:00:30;;;;;;;42.88;28.02;;;;;;;4.34;77.37;94405.63;1815057;79;21150;-55
2021/04/26 00:02:58;;;;;;;43.73;29.10;;;;;;;4.40;77.50;94414.85;1815029;79;21155;-55
2021/04/26 00:05:27;;;;;;;37.13;25.60;;;;;;;4.47;77.34;94407.16;1815204;78;21369;-54
2021/04/26 00:07:55;;;;;;;48.65;30.08;;;;;;;4.49;77.00;94402.84;1815183;79;21068;-55
2021/04/26 00:10:25;;;;;;;44.60;27.87;;;;;;;4.45;76.79;94402.11;1815316;79;21115;-56
2021/04/26 00:12:53;;;;;;;35.55;23.65;;;;;;;4.37;76.99;94404.80;1815378;79;21115;-55
2021/04/26 00:15:27;;;;;;;30.30;21.70;;;;;;;4.36;77.00;94408.70;1810188;79;21082;-57
2021/04/26 00:17:55;;;;;;;33.02;21.48;;;;;;;4.38;77.13;94411.78;1815415;79;21178;-55
2021/04/26 00:20:27;;;;;;;36.30;26.45;;;;;;;4.40;76.92;94410.02;1815099;79;21119;-54
2021/04/26 00:22:56;;;;;;;33.95;23.70;;;;;;;4.43;77.06;94404.48;1815398;79;21087;-55
2021/04/26 00:25:27;;;;;;;33.80;25.10;;;;;;;4.42;76.77;94409.00;1815233;78;21083;-55
2021/04/26 00:27:54;;;;;;;31.12;20.68;;;;;;;4.37;77.08;94410.24;1815322;79;21066;-55
2021/04/26 00:30:25;;;;;;;28.00;21.82;;;;;;;4.36;77.11;94411.42;1815354;78;21366;-55
2021/04/26 00:32:53;;;;;;;30.02;23.75;;;;;;;4.29;77.02;94402.03;1815342;78;21146;-54
2021/04/26 00:35:22;;;;;;;34.75;25.37;;;;;;;4.25;77.08;94412.80;1815261;79;21107;-55
2021/04/26 00:37:50;;;;;;;35.20;25.02;;;;;;;4.21;77.37;94414.20;1815267;79;21579;-56
2021/04/26 00:40:19;;;;;;;30.05;22.32;;;;;;;4.24;77.62;94411.27;1815352;78;21079;-55
2021/04/26 00:42:49;;;;;;;34.15;23.55;;;;;;;4.22;77.40;94408.19;1815234;77;21334;-55
2021/04/26 00:45:20;;;;;;;32.25;23.95;;;;;;;4.16;77.57;94403.02;1815269;79;21055;-55
2021/04/26 00:47:48;;;;;;;33.40;23.65;;;;;;;4.17;78.11;94405.34;1815347;78;21084;-54
2021/04/26 00:50:20;;;;;;;37.53;25.95;;;;;;;4.27;78.11;94400.29;1815135;79;21472;-54
2021/04/26 00:52:49;;;;;;;40.80;24.97;;;;;;;4.37;78.04;94403.44;1815607;79;21146;-55
2021/04/26 00:55:23;;;;;;;39.67;24.32;;;;;;;4.43;77.67;94403.12;1815283;79;21137;-54
2021/04/26 00:57:50;;;;;;;42.38;26.87;;;;;;;4.40;77.75;94399.87;1815198;79;21152;-56
2021/04/26 01:00:20;;;;;;;30.32;20.77;;;;;;;4.38;77.93;94402.86;1815266;79;21103;-55
2021/04/26 01:02:48;;;;;;;32.85;21.23;;;;;;;4.38;77.86;94404.97;1815215;79;21104;-55
2021/04/26 01:05:20;;;;;;;33.40;21.12;;;;;;;4.31;77.94;94409.19;1815371;79;21048;-55
2021/04/26 01:07:48;;;;;;;26.90;18.35;;;;;;;4.34;78.09;94417.09;1815415;78;21138;-56
2021/04/26 01:10:22;;;;;;;23.18;17.80;;;;;;;4.37;77.93;94409.45;1815247;79;21095;-55
2021/04/26 01:13:31;;;;;;;26.80;19.60;;;;;;;4.29;77.86;94406.12;1785880;79;21107;-55
2021/04/26 01:16:16;;;;;;;25.35;19.92;;;;;;;4.27;78.58;94398.92;1815308;79;21078;-55
2021/04/26 01:19:22;;;;;;;28.95;19.65;;;;;;;4.39;78.29;94406.51;1815275;78;21115;-55
2021/04/26 01:22:21;;;;;;;22.62;16.97;;;;;;;4.40;78.35;94399.87;1766358;78;21618;-56
2021/04/26 01:25:13;;;;;;;19.65;16.25;;;;;;;4.47;78.37;94394.32;1808712;78;21123;-55
2021/04/26 01:27:56;;;;;;;18.20;14.38;;;;;;;4.62;78.08;94381.95;1827368;78;21154;-56
2021/04/26 01:30:46;;;;;;;15.80;13.80;;;;;;;4.73;77.34;94389.34;1827522;78;21078;-56
2021/04/26 01:33:27;;;;;;;19.45;15.10;;;;;;;4.60;76.87;94385.69;1827368;78;21170;-55
2021/04/26 01:36:05;;;;;;;19.45;15.40;;;;;;;4.52;77.62;94387.60;1827197;78;21447;-55
2021/04/26 01:38:37;;;;;;;17.48;13.50;;;;;;;4.56;77.49;94382.85;1827238;78;21221;-55
2021/04/26 01:41:07;;;;;;;17.80;13.60;;;;;;;4.56;77.28;94376.83;1827362;77;21067;-56
2021/04/26 01:43:35;;;;;;;18.15;13.43;;;;;;;4.53;77.21;94379.03;1827371;78;21071;-55
2021/04/26 01:46:06;;;;;;;21.02;15.23;;;;;;;4.52;77.22;94381.58;1802280;78;21110;-54
2021/04/26 01:48:39;;;;;;;19.27;14.05;;;;;;;4.52;77.54;94384.30;1827352;78;22202;-55
2021/04/26 01:51:09;;;;;;;19.37;14.15;;;;;;;4.62;77.81;94391.48;1827307;78;21591;-55
2021/04/26 01:53:41;;;;;;;20.35;14.90;;;;;;;4.78;77.61;94391.58;1827350;78;21070;-55
2021/04/26 01:56:10;;;;;;;19.30;14.28;;;;;;;4.87;77.04;94390.44;1827519;78;21071;-55
2021/04/26 01:58:54;;;;;;;18.15;14.13;;;;;;;5.04;76.86;94390.69;1872890;75;21869;-55
2021/04/26 02:01:23;;;;;;;15.30;13.30;;;;;;;5.02;76.35;94387.61;1841525;78;21105;-55
2021/04/26 02:03:58;;;;;;;14.28;12.37;;;;;;;5.05;76.23;94399.03;1839683;77;21186;-57
2021/04/26 02:06:37;;;;;;;15.75;11.57;;;;;;;5.07;76.15;94393.94;1813816;78;21097;-57
2021/04/26 02:09:12;;;;;;;18.52;12.20;;;;;;;5.17;75.66;94401.72;1778665;78;21125;-54
2021/04/26 02:11:44;;;;;;;16.87;12.68;;;;;;;5.17;75.46;94394.30;1841568;77;21029;-55
2021/04/26 02:14:13;;;;;;;13.32;11.53;;;;;;;5.12;75.24;94386.61;1841575;78;21074;-56
2021/04/26 02:16:41;;;;;;;13.40;11.48;;;;;;;5.09;75.09;94380.65;1811498;78;21252;-56
2021/04/26 02:19:11;;;;;;;9.73;8.88;;;;;;;5.08;74.85;94383.20;1841523;78;20958;-55
2021/04/26 02:21:41;;;;;;;11.53;9.28;;;;;;;5.10;74.01;94376.73;1841543;78;21119;-53
2021/04/26 02:24:10;;;;;;;13.78;11.50;;;;;;;5.08;73.78;94385.14;1841469;78;21057;-54
2021/04/26 02:26:38;;;;;;;13.83;10.98;;;;;;;5.06;73.92;94385.58;1841556;78;21053;-53
2021/04/26 02:29:06;;;;;;;15.03;11.45;;;;;;;5.08;73.83;94381.84;1841540;78;21181;-53
2021/04/26 02:31:35;;;;;;;13.53;11.33;;;;;;;5.15;73.87;94388.49;1841444;78;21089;-57
2021/04/26 02:34:14;;;;;;;13.53;11.38;;;;;;;5.23;73.72;94376.27;1841510;78;21110;-56
2021/04/26 02:36:51;;;;;;;12.28;10.65;;;;;;;5.33;73.38;94372.53;1841438;77;21042;-57
2021/04/26 02:39:19;;;;;;;12.63;9.58;;;;;;;5.44;73.00;94373.83;1841601;78;21074;-57
2021/04/26 02:41:47;;;;;;;14.60;10.28;;;;;;;5.44;72.24;94373.08;1824951;78;21872;-56
2021/04/26 02:44:25;;;;;;;11.05;9.65;;;;;;;5.34;71.96;94378.16;1808536;78;21074;-56
2021/04/26 02:47:06;;;;;;;12.40;9.95;;;;;;;5.25;71.96;94377.98;1808581;79;21156;-56
2021/04/26 02:49:39;;;;;;;9.00;8.13;;;;;;;5.28;72.03;94386.06;1808645;79;21061;-55
2021/04/26 02:52:09;;;;;;;13.60;10.10;;;;;;;5.37;71.09;94388.22;1780872;79;21057;-58
2021/04/26 02:54:40;;;;;;;15.45;11.68;;;;;;;5.24;70.69;94382.65;1779611;79;21506;-56
2021/04/26 02:57:08;;;;;;;14.78;10.68;;;;;;;5.16;71.16;94384.58;1780496;79;21204;-56
2021/04/26 02:59:37;;;;;;;10.25;9.15;;;;;;;5.20;71.11;94379.84;1814173;79;21077;-57
2021/04/26 03:02:05;;;;;;;9.85;8.90;;;;;;;5.22;70.30;94372.01;1814185;79;21057;-57
2021/04/26 03:04:38;;;;;;;9.13;8.20;;;;;;;5.18;69.95;94371.90;1806829;79;21100;-57
2021/04/26 03:07:06;;;;;;;13.70;11.28;;;;;;;5.10;69.77;94375.37;1760127;80;22174;-58
2021/04/26 03:09:38;;;;;;;10.95;9.25;;;;;;;4.96;70.08;94374.28;1732881;81;21114;-57
2021/04/26 03:12:09;;;;;;;13.03;9.50;;;;;;;4.89;69.52;94386.70;1759463;81;21070;-58
2021/04/26 03:14:39;;;;;;;14.38;11.15;;;;;;;4.81;69.70;94383.92;1759311;81;21067;-58
2021/04/26 03:17:08;;;;;;;15.08;11.65;;;;;;;4.76;69.67;94389.87;1759522;81;21083;-57
2021/04/26 03:19:40;;;;;;;17.42;14.53;;;;;;;4.72;69.92;94391.11;1759678;81;22119;-58
2021/04/26 03:22:08;;;;;;;16.93;13.83;;;;;;;4.66;70.28;94386.77;1759641;80;21476;-57
2021/04/26 03:24:38;;;;;;;12.98;11.33;;;;;;;4.64;70.30;94389.11;1732076;81;21062;-58
2021/04/26 03:27:07;;;;;;;17.77;13.83;;;;;;;4.67;70.21;94391.03;1759638;81;21071;-57
2021/04/26 03:29:35;;;;;;;25.17;17.05;;;;;;;4.74;70.46;94391.46;1759698;81;21083;-59
2021/04/26 03:32:04;;;;;;;22.70;15.38;;;;;;;4.86;70.20;94392.21;1759677;81;21142;-56
2021/04/26 03:34:33;;;;;;;24.52;16.02;;;;;;;4.94;70.43;94395.74;1758841;81;21590;-57
2021/04/26 03:37:02;;;;;;;21.52;18.45;;;;;;;4.92;70.69;94396.76;1759585;81;21130;-57
2021/04/26 03:39:30;;;;;;;27.58;22.25;;;;;;;4.88;71.06;94397.43;1759685;81;21137;-62
2021/04/26 03:42:01;;;;;;;15.50;11.12;;;;;;;4.94;71.10;94399.08;1759679;80;21161;-57
2021/04/26 03:44:29;;;;;;;9.15;8.25;;;;;;;4.93;70.92;94398.30;1759704;81;21237;-57
2021/04/26 03:47:23;;;;;;;15.10;10.60;;;;;;;4.90;70.64;94404.59;1890083;75;22646;-57
2021/04/26 03:49:53;;;;;;;11.22;8.35;;;;;;;4.72;70.50;94408.25;1853427;77;21052;-56
2021/04/26 03:52:26;;;;;;;31.57;16.05;;;;;;;4.75;70.15;94415.58;1794073;77;21505;-57
2021/04/26 03:55:07;;;;;;;31.23;16.20;;;;;;;4.87;70.04;94409.52;1746419;81;21069;-57
2021/04/26 03:57:35;;;;;;;30.10;17.20;;;;;;;4.91;69.66;94416.24;1860946;77;21001;-58
2021/04/26 04:00:08;;;;;;;43.05;21.40;;;;;;;4.89;69.97;94413.95;1860862;77;20926;-57
2021/04/26 04:02:38;;;;;;;44.15;21.87;;;;;;;4.88;70.29;94412.42;1858156;77;21143;-54
2021/04/26 04:05:08;;;;;;;48.65;26.55;;;;;;;4.88;70.24;94419.23;1860862;77;21129;-58
2021/04/26 04:07:55;;;;;;;44.40;23.22;;;;;;;4.90;70.38;94419.58;1860904;77;21041;-55
2021/04/26 04:10:41;;;;;;;61.45;28.05;;;;;;;4.92;70.12;94421.29;1860954;77;21572;-55
2021/04/26 04:13:12;;;;;;;77.97;34.23;;;;;;;4.85;70.70;94430.97;1860933;77;21049;-55
2021/04/26 04:15:40;;;;;;;43.50;22.65;;;;;;;4.92;71.06;94430.83;1860909;77;21081;-55
2021/04/26 04:18:08;;;;;;;26.62;15.10;;;;;;;5.00;70.16;94434.94;1860914;77;21196;-55
2021/04/26 04:20:38;;;;;;;19.20;12.33;;;;;;;4.98;69.66;94431.87;1860871;77;21156;-59
2021/04/26 04:23:07;;;;;;;18.23;12.00;;;;;;;5.03;69.44;94433.34;1860863;77;21120;-54
2021/04/26 04:25:36;;;;;;;16.65;13.05;;;;;;;4.98;69.21;94440.05;1860815;77;21100;-54
2021/04/26 04:28:05;;;;;;;20.40;14.25;;;;;;;4.96;69.64;94430.16;1861012;77;21172;-55
2021/04/26 04:30:34;;;;;;;17.07;12.68;;;;;;;5.00;70.14;94439.03;1827557;77;21188;-55
2021/04/26 04:33:18;;;;;;;17.48;12.05;;;;;;;4.96;70.31;94445.76;1860786;77;21121;-55
2021/04/26 04:36:05;;;;;;;17.07;14.05;;;;;;;4.94;70.85;94441.32;1860906;77;21469;-55
2021/04/26 04:38:51;;;;;;;13.85;11.57;;;;;;;4.90;71.07;94446.83;1860912;77;21045;-56
2021/04/26 04:41:38;;;;;;;12.35;10.10;;;;;;;4.94;71.08;94437.23;1869587;76;21107;-57
2021/04/26 04:44:06;;;;;;;14.80;12.18;;;;;;;5.03;71.32;94442.89;1807145;78;22234;-55
2021/04/26 04:46:34;;;;;;;13.78;11.55;;;;;;;5.12;71.18;94441.75;1824281;78;21119;-57
2021/04/26 04:49:04;;;;;;;17.85;13.58;;;;;;;5.20;70.97;94449.38;1812909;79;21057;-55
2021/04/26 04:51:35;;;;;;;18.42;13.10;;;;;;;5.35;70.78;94450.60;1825976;78;21052;-56
2021/04/26 04:54:05;;;;;;;16.25;11.88;;;;;;;5.47;69.86;94450.75;1813021;79;21178;-56
2021/04/26 04:56:35;;;;;;;14.30;11.45;;;;;;;5.51;69.22;94452.02;1824866;78;21202;-55
2021/04/26 04:59:04;;;;;;;26.35;17.02;;;;;;;5.65;68.44;94458.55;1812475;79;21072;-55
2021/04/26 05:01:33;;;;;;;12.95;10.68;;;;;;;5.84;68.01;94454.47;1825384;78;21044;-55
2021/04/26 05:04:19;;;;;;;18.80;12.75;;;;;;;5.75;65.58;94456.20;1825354;78;21123;-60
2021/04/26 05:07:05;;;;;;;16.77;13.20;;;;;;;5.52;66.79;94459.02;1825431;78;21150;-57
2021/04/26 05:09:52;;;;;;;13.68;9.95;;;;;;;5.37;67.63;94462.64;1825361;78;21338;-55
2021/04/26 05:12:40;;;;;;;13.95;11.22;;;;;;;5.25;67.55;94465.98;1754057;81;21869;-56
2021/04/26 05:15:36;;;;;;;26.48;20.52;;;;;;;5.22;68.04;94468.80;1911171;74;22663;-55
2021/04/26 05:18:07;;;;;;;15.72;12.95;;;;;;;5.21;68.43;94464.55;1849830;77;21117;-55
2021/04/26 05:20:35;;;;;;;14.35;12.55;;;;;;;5.20;68.53;94473.91;1849906;77;22101;-56
2021/04/26 05:23:03;;;;;;;16.37;11.35;;;;;;;5.18;68.59;94470.05;1852709;76;21180;-55
2021/04/26 05:25:32;;;;;;;19.85;15.80;;;;;;;5.14;69.22;94481.63;1812199;79;21264;-55
2021/04/26 05:28:00;;;;;;;19.55;13.85;;;;;;;5.09;69.66;94484.81;1851479;76;21183;-58
2021/04/26 05:30:30;;;;;;;15.53;11.95;;;;;;;4.92;69.80;94484.55;1840963;76;21045;-56
2021/04/26 05:32:59;;;;;;;17.02;12.85;;;;;;;4.87;70.04;94489.91;1853286;76;21186;-57
2021/04/26 05:35:46;;;;;;;12.65;10.60;;;;;;;4.81;70.13;94492.16;1842581;76;21198;-55
2021/04/26 05:38:17;;;;;;;19.45;12.95;;;;;;;4.84;70.42;94492.11;1855199;76;21169;-57
2021/04/26 05:40:47;;;;;;;16.40;13.20;;;;;;;4.90;70.50;94489.66;1848518;76;21616;-55
2021/04/26 05:43:16;;;;;;;16.48;12.23;;;;;;;4.89;70.30;94488.90;1814336;78;21181;-58
2021/04/26 05:45:46;;;;;;;16.25;12.95;;;;;;;5.01;70.15;94491.60;1813304;78;21252;-53
2021/04/26 05:48:21;;;;;;;15.00;12.63;;;;;;;5.06;70.08;94489.17;1819123;78;21183;-54
2021/04/26 05:50:54;;;;;;;16.02;14.15;;;;;;;5.10;69.67;94495.90;1815423;78;21164;-59
2021/04/26 05:53:22;;;;;;;19.62;15.80;;;;;;;5.09;69.85;94487.55;1788610;78;21200;-61
2021/04/26 05:55:51;;;;;;;14.40;11.10;;;;;;;5.19;69.80;94494.16;1821173;78;21101;-62
2021/04/26 05:58:21;;;;;;;16.52;12.93;;;;;;;5.29;69.25;94480.34;1808086;78;22120;-60
2021/04/26 06:00:49;;;;;;;18.12;14.78;;;;;;;5.47;69.09;94494.41;1811724;78;21179;-62
2021/04/26 06:03:17;;;;;;;17.32;14.30;;;;;;;5.70;68.37;94501.70;1807442;78;21569;-53
2021/04/26 06:05:45;;;;;;;17.27;13.65;;;;;;;5.80;67.58;94495.30;1803465;78;21125;-55
2021/04/26 06:08:15;;;;;;;19.27;13.88;;;;;;;5.80;67.47;94496.66;1810081;78;21157;-53
2021/04/26 06:10:45;;;;;;;21.77;16.00;;;;;;;5.80;66.89;94499.39;1808482;78;22304;-54
2021/04/26 06:13:14;;;;;;;20.08;14.40;;;;;;;5.83;67.16;94501.27;1810302;78;21192;-56
2021/04/26 06:15:42;;;;;;;18.65;15.18;;;;;;;5.86;66.84;94499.06;1787344;77;21288;-55
2021/04/26 06:18:18;;;;;;;16.77;12.15;;;;;;;5.92;65.84;94501.45;1765006;78;21179;-57
2021/04/26 06:20:47;;;;;;;15.93;11.00;;;;;;;6.05;65.50;94506.44;1778994;78;21136;-57
2021/04/26 06:23:15;;;;;;;12.10;10.85;;;;;;;6.11;64.78;94504.73;1791865;78;22127;-56
2021/04/26 06:25:44;;;;;;;11.43;10.23;;;;;;;6.22;63.82;94503.33;1785992;78;21208;-58
2021/04/26 06:28:13;;;;;;;13.03;10.80;;;;;;;6.27;63.77;94506.91;1800596;78;21381;-55
2021/04/26 06:30:43;;;;;;;12.82;9.88;;;;;;;6.33;63.46;94512.64;1785491;78;21217;-55
2021/04/26 06:33:16;;;;;;;10.88;8.65;;;;;;;6.35;62.54;94518.45;1790724;78;21161;-58
2021/04/26 06:35:46;;;;;;;9.90;8.80;;;;;;;6.34;61.84;94523.73;1740093;80;21266;-55
2021/04/26 06:38:14;;;;;;;11.25;8.73;;;;;;;6.37;61.43;94518.17;1740993;81;21229;-58
2021/04/26 06:40:42;;;;;;;10.50;8.18;;;;;;;6.30;61.29;94523.06;1739368;81;21648;-53
2021/04/26 06:43:11;;;;;;;9.98;8.98;;;;;;;6.29;62.03;94527.73;1759775;81;21578;-55
2021/04/26 06:45:40;;;;;;;11.22;9.13;;;;;;;6.29;61.96;94525.59;1766592;80;21055;-56
2021/04/26 06:48:10;;;;;;;12.05;9.63;;;;;;;6.32;62.25;94519.30;1729425;81;21200;-56
2021/04/26 06:50:38;;;;;;;40.38;21.87;;;;;;;6.34;61.84;94514.94;1703844;81;21166;-55
2021/04/26 06:53:06;;;;;;;33.80;20.48;;;;;;;6.47;62.27;94516.39;1730196;81;21429;-59
2021/04/26 06:55:34;;;;;;;40.63;24.47;;;;;;;6.66;62.64;94524.52;1735060;81;21208;-54
2021/04/26 06:58:03;;;;;;;26.87;18.00;;;;;;;6.85;62.26;94529.13;1728899;81;21194;-59
2021/04/26 07:00:31;;;;;;;12.30;9.90;;;;;;;7.08;61.78;94517.41;1729290;81;21270;-60
2021/04/26 07:03:00;;;;;;;10.03;8.45;;;;;;;7.23;59.93;94513.11;1724659;81;21178;-59
2021/04/26 07:05:29;;;;;;;9.20;7.95;;;;;;;7.25;59.12;94518.91;1724742;81;21205;-57
2021/04/26 07:07:57;;;;;;;9.65;8.43;;;;;;;7.35;58.54;94517.84;1725745;81;21232;-54
2021/04/26 07:10:28;;;;;;;19.90;13.72;;;;;;;7.55;58.58;94528.66;1739733;81;21230;-57
2021/04/26 07:12:56;;;;;;;24.02;17.15;;;;;;;7.84;59.10;94519.22;1733783;81;21837;-58
2021/04/26 07:15:24;;;;;;;17.50;14.20;;;;;;;8.06;59.13;94521.50;1735330;80;21090;-57
2021/04/26 07:17:52;;;;;;;12.15;9.85;;;;;;;8.26;59.06;94528.95;1748434;80;21165;-59
2021/04/26 07:20:20;;;;;;;12.13;9.03;;;;;;;8.38;57.69;94532.31;1743065;80;21260;-57
2021/04/26 07:22:48;;;;;;;9.90;8.90;;;;;;;8.48;56.56;94526.34;1741718;80;21118;-60
2021/04/26 07:25:23;;;;;;;15.85;12.33;;;;;;;8.53;56.09;94525.19;1717515;80;21210;-60
2021/04/26 07:27:54;;;;;;;11.30;9.63;;;;;;;8.54;55.72;94537.69;1741263;80;21601;-59
2021/04/26 07:30:24;;;;;;;8.80;7.90;;;;;;;8.50;54.37;94530.19;1750300;80;21812;-56
2021/04/26 07:32:55;;;;;;;8.18;7.33;;;;;;;8.43;53.42;94528.27;1757872;80;21205;-58
2021/04/26 07:35:25;;;;;;;8.25;7.35;;;;;;;8.41;53.81;94531.44;1696130;80;21248;-55
2021/04/26 07:37:52;;;;;;;9.48;8.48;;;;;;;8.37;53.76;94536.26;1743907;80;21236;-60
2021/04/26 07:40:20;;;;;;;10.43;8.83;;;;;;;8.31;53.59;94537.23;1744393;80;21246;-56
2021/04/26 07:42:50;;;;;;;11.12;8.60;;;;;;;8.37;53.63;94531.37;1747744;80;21173;-58
2021/04/26 07:45:21;;;;;;;10.95;8.53;;;;;;;8.44;53.89;94538.77;1747095;80;21315;-60
2021/04/26 07:47:49;;;;;;;9.95;8.20;;;;;;;8.56;53.59;94532.53;1723716;81;22811;-58
2021/04/26 07:50:18;;;;;;;8.18;6.90;;;;;;;8.63;54.14;94530.94;1744686;80;22869;-62
2021/04/26 07:52:46;;;;;;;9.15;6.78;;;;;;;8.61;53.18;94537.46;1723039;81;21211;-60
2021/04/26 07:55:14;;;;;;;9.25;8.13;;;;;;;8.57;53.07;94533.28;1746243;80;21118;-61
2021/04/26 07:57:43;;;;;;;8.08;6.35;;;;;;;8.62;52.90;94532.14;1697149;82;21234;-58
2021/04/26 08:00:11;;;;;;;9.65;7.97;;;;;;;8.66;50.71;94541.64;1721575;81;21124;-56
2021/04/26 08:02:39;;;;;;;8.25;6.53;;;;;;;8.61;51.01;94541.57;1741280;80;22013;-57
2021/04/26 08:05:10;;;;;;;7.55;6.67;;;;;;;8.56;50.92;94544.09;1744967;80;21368;-60
2021/04/26 08:07:39;;;;;;;7.78;6.90;;;;;;;8.58;51.08;94546.56;1741595;80;21267;-57
2021/04/26 08:10:09;;;;;;;17.12;11.88;;;;;;;8.48;50.75;94547.68;1737933;80;21600;-56
2021/04/26 08:12:37;;;;;;;8.48;7.25;;;;;;;8.23;50.96;94544.15;1736693;80;21256;-56
2021/04/26 08:15:07;;;;;;;11.10;7.15;;;;;;;8.12;51.35;94541.69;1726503;80;21228;-55
2021/04/26 08:17:35;;;;;;;9.65;6.70;;;;;;;8.10;52.92;94556.40;1704068;83;21267;-57
2021/04/26 08:20:06;;;;;;;7.35;6.65;;;;;;;8.01;54.15;94550.03;1702800;83;21187;-60
2021/04/26 08:22:34;;;;;;;7.53;6.62;;;;;;;7.92;53.58;94547.92;1700834;82;21138;-58
2021/04/26 08:25:05;;;;;;;10.90;7.40;;;;;;;7.92;54.26;94556.14;1681645;83;21443;-58
2021/04/26 08:27:34;;;;;;;11.68;10.48;;;;;;;8.13;53.74;94555.55;1732596;81;22172;-56
2021/04/26 08:30:04;;;;;;;7.05;6.42;;;;;;;8.42;53.00;94557.63;1742489;81;21135;-56
2021/04/26 08:32:33;;;;;;;13.00;9.75;;;;;;;8.64;52.96;94561.25;1718037;81;21198;-57
2021/04/26 08:35:03;;;;;;;9.08;7.85;;;;;;;8.70;51.02;94565.00;1701988;83;21155;-57
2021/04/26 08:37:31;;;;;;;8.25;6.30;;;;;;;8.72;49.06;94562.59;1703440;83;21611;-59
2021/04/26 08:40:02;;;;;;;9.38;7.10;;;;;;;8.78;49.41;94560.82;1699295;82;21785;-56
2021/04/26 08:42:30;;;;;;;11.38;7.67;;;;;;;8.68;49.38;94567.42;1696782;83;21650;-56
2021/04/26 08:44:57;;;;;;;6.53;5.92;;;;;;;8.56;49.33;94560.54;1728898;81;21652;-55
2021/04/26 08:47:26;;;;;;;8.15;6.45;;;;;;;8.43;48.65;94566.02;1721021;81;21207;-58
2021/04/26 08:49:55;;;;;;;9.63;5.55;;;;;;;8.35;48.62;94567.45;1730365;81;21153;-58
2021/04/26 08:52:23;;;;;;;12.33;8.00;;;;;;;8.40;46.79;94562.79;1709336;81;21637;-56
2021/04/26 08:54:51;;;;;;;11.00;9.33;;;;;;;8.36;47.58;94560.77;1686570;83;21702;-56
2021/04/26 08:57:19;;;;;;;17.10;8.70;;;;;;;8.48;51.10;94565.50;1705296;84;21157;-56
2021/04/26 08:59:47;;;;;;;7.53;5.92;;;;;;;8.59;50.66;94563.18;1693332;84;21174;-56
2021/04/26 09:02:15;;;;;;;6.75;5.78;;;;;;;8.71;49.28;94563.02;1693340;82;21638;-58
2021/04/26 09:04:51;;;;;;;9.93;6.72;;;;;;;8.83;47.79;94563.00;1698434;82;21240;-59
2021/04/26 09:07:19;;;;;;;15.68;6.33;;;;;;;8.91;48.10;94563.71;1718822;81;21183;-62
2021/04/26 09:09:52;;;;;;;14.65;7.35;;;;;;;9.02;46.87;94564.73;1716552;81;22134;-59
2021/04/26 09:12:30;;;;;;;9.73;7.00;;;;;;;9.10;47.06;94567.44;1706251;81;21154;-60
2021/04/26 09:14:59;;;;;;;10.82;7.05;;;;;;;9.10;47.23;94568.19;1725471;80;21647;-59
2021/04/26 09:17:40;;;;;;;30.70;9.58;;;;;;;9.07;47.10;94562.84;1808010;78;21606;-57
2021/04/26 09:20:20;;;;;;;11.78;7.33;;;;;;;8.96;47.92;94556.32;1814276;78;21194;-56
2021/04/26 09:22:58;;;;;;;17.75;9.58;;;;;;;8.89;46.66;94557.90;1767322;80;21119;-58
2021/04/26 09:25:40;;;;;;;31.25;16.45;;;;;;;8.84;48.09;94561.05;1733843;82;21199;-59
2021/04/26 09:28:13;;;;;;;22.30;14.25;;;;;;;8.87;48.35;94565.05;1751570;80;21158;-57
2021/04/26 09:30:54;;;;;;;17.10;8.80;;;;;;;8.80;49.31;94566.63;1740943;80;21275;-56
2021/04/26 09:33:37;;;;;;;22.85;7.75;;;;;;;8.90;50.01;94560.05;1801200;78;21172;-59
2021/04/26 09:36:21;;;;;;;9.05;6.42;;;;;;;9.08;49.98;94561.63;1793843;79;27735;-57
2021/04/26 09:38:51;;;;;;;17.37;7.22;;;;;;;9.32;49.42;94562.77;1807855;78;21142;-61
2021/04/26 09:41:28;;;;;;;12.65;6.33;;;;;;;9.56;49.47;94560.56;1790666;79;21240;-58
2021/04/26 09:44:09;;;;;;;8.38;5.47;;;;;;;9.91;48.61;94562.66;1768767;79;21198;-56
2021/04/26 09:46:51;;;;;;;10.08;6.17;;;;;;;10.21;45.73;94566.12;1751214;80;21187;-62
2021/04/26 09:49:25;;;;;;;12.55;5.78;;;;;;;10.45;44.59;94565.20;1727966;81;21203;-59
2021/04/26 09:51:58;;;;;;;6.65;4.80;;;;;;;10.59;43.24;94562.52;1811002;78;21194;-61
2021/04/26 09:54:43;;;;;;;9.65;6.00;;;;;;;10.66;43.88;94562.23;1806391;77;21222;-59
2021/04/26 09:57:14;;;;;;;13.72;7.83;;;;;;;10.71;43.25;94556.16;1805992;78;21230;-60
2021/04/26 09:59:43;;;;;;;13.03;6.20;;;;;;;10.65;42.79;94551.84;1799500;78;21673;-57
2021/04/26 10:02:12;;;;;;;12.25;5.95;;;;;;;10.59;43.23;94555.04;1735602;82;21166;-58
2021/04/26 10:04:41;;;;;;;9.83;6.08;;;;;;;10.54;43.29;94556.23;1739050;80;21094;-56
2021/04/26 10:07:13;;;;;;;18.15;7.08;;;;;;;10.45;44.11;94555.58;1695016;81;21171;-58
2021/04/26 10:09:45;;;;;;;17.90;6.30;;;;;;;10.40;45.35;94556.76;1740585;81;21205;-57
2021/04/26 10:12:14;;;;;;;12.20;5.70;;;;;;;10.36;44.98;94565.13;1757675;81;22391;-58
2021/04/26 10:14:43;;;;;;;19.80;8.65;;;;;;;10.20;44.65;94572.83;1744696;80;20953;-57
2021/04/26 10:17:13;;;;;;;29.57;9.98;;;;;;;10.03;46.61;94562.66;1803090;77;21133;-57
2021/04/26 10:19:47;;;;;;;35.68;11.43;;;;;;;9.90;48.64;94569.38;1799378;79;21244;-59
2021/04/26 10:22:42;;;;;;;25.10;8.98;;;;;;;9.73;48.94;94563.89;1754634;80;21157;-57
2021/04/26 10:25:14;;;;;;;15.75;7.40;;;;;;;9.61;49.92;94563.36;1801197;79;21163;-57
2021/04/26 10:27:44;;;;;;;12.23;8.05;;;;;;;9.45;49.15;94550.54;1755262;80;21174;-56
2021/04/26 10:30:16;;;;;;;22.52;9.38;;;;;;;9.44;49.17;94553.13;1726399;82;21191;-58
2021/04/26 10:32:59;;;;;;;17.37;8.53;;;;;;;9.70;50.13;94556.55;1767500;80;21554;-59
2021/04/26 10:35:48;;;;;;;32.85;9.10;;;;;;;9.82;49.75;94551.62;1729872;82;21359;-56
2021/04/26 10:38:39;;;;;;;11.63;7.08;;;;;;;9.96;50.58;94555.23;1772438;80;21143;-57
2021/04/26 10:41:10;;;;;;;11.90;6.70;;;;;;;9.97;49.41;94552.03;1735305;82;21166;-57
2021/04/26 10:43:40;;;;;;;16.12;8.10;;;;;;;9.83;49.90;94557.27;1745160;80;21190;-58
2021/04/26 10:46:20;;;;;;;15.28;8.03;;;;;;;9.76;50.59;94551.42;1747392;80;21111;-56
2021/04/26 10:49:09;;;;;;;10.90;7.80;;;;;;;9.65;50.71;94544.14;1761718;79;22127;-57
2021/04/26 10:51:38;;;;;;;16.87;9.83;;;;;;;9.65;51.96;94543.39;1766226;79;21567;-61
2021/04/26 10:54:07;;;;;;;21.45;9.88;;;;;;;9.83;51.91;94537.42;1788512;79;21232;-59
2021/04/26 10:56:38;;;;;;;17.57;8.90;;;;;;;10.02;50.40;94529.48;1755179;79;21228;-60
2021/04/26 10:59:25;;;;;;;16.45;7.92;;;;;;;10.03;50.59;94519.28;1766466;79;21182;-58
2021/04/26 11:01:53;;;;;;;13.15;7.22;;;;;;;10.11;50.82;94526.03;1806849;78;21408;-61
2021/04/26 11:04:21;;;;;;;16.87;7.90;;;;;;;10.21;49.54;94527.63;1803200;79;21114;-60
2021/04/26 11:07:04;;;;;;;15.78;9.45;;;;;;;10.24;49.52;94526.73;1800750;78;21544;-59
2021/04/26 11:09:36;;;;;;;29.60;11.85;;;;;;;10.22;49.01;94520.91;1804285;79;21219;-61
2021/04/26 11:12:24;;;;;;;16.55;9.50;;;;;;;10.08;49.83;94529.69;1815941;77;21118;-57
2021/04/26 11:14:52;;;;;;;15.78;7.20;;;;;;;10.02;49.57;94512.25;1783258;78;21266;-60
2021/04/26 11:17:24;;;;;;;13.22;8.18;;;;;;;10.24;48.58;94525.35;1763211;77;21445;-59
2021/04/26 11:20:14;;;;;;;16.97;6.92;;;;;;;10.24;48.81;94521.23;1806401;78;21754;-59
2021/04/26 11:22:42;;;;;;;14.68;7.75;;;;;;;10.25;48.14;94519.42;1788203;78;21533;-57
2021/04/26 11:25:13;;;;;;;8.60;5.30;;;;;;;10.33;48.65;94522.67;1765199;79;21658;-56
2021/04/26 11:27:45;;;;;;;14.25;6.58;;;;;;;10.47;47.78;94516.61;1746824;80;21252;-57
2021/04/26 11:30:16;;;;;;;25.00;7.00;;;;;;;10.48;47.15;94511.26;1692537;82;21150;-58
2021/04/26 11:33:02;;;;;;;14.03;6.75;;;;;;;10.45;47.24;94515.70;1754544;80;21135;-58
2021/04/26 11:36:14;;;;;;;10.63;6.35;;;;;;;10.48;46.82;94519.51;1856664;75;22783;-59
2021/04/26 11:38:43;;;;;;;14.45;5.65;;;;;;;10.73;46.61;94518.10;1831577;77;21353;-61
2021/04/26 11:41:12;;;;;;;10.08;6.00;;;;;;;11.21;45.47;94526.19;1830051;76;21338;-59
2021/04/26 11:43:45;;;;;;;9.83;5.72;;;;;;;11.48;45.36;94524.23;1799662;78;21204;-60
2021/04/26 11:46:13;;;;;;;10.72;6.10;;;;;;;11.65;44.05;94526.88;1808740;78;21128;-60
2021/04/26 11:48:42;;;;;;;8.95;5.70;;;;;;;11.65;43.49;94526.10;1774255;78;21179;-61
2021/04/26 11:51:14;;;;;;;11.25;5.35;;;;;;;11.96;42.97;94517.84;1796550;79;21162;-60
2021/04/26 11:53:42;;;;;;;5.10;4.53;;;;;;;12.22;42.62;94518.24;1765531;78;21212;-63